NZAA/AKL METAR and TAF weather

Enter ICAO airport designator
Station Type Date Time Source
NZAA METAR 2019/08/20 09:30 UTC NOAA

NZAA 200930Z AUTO 05010G21KT 020V080 5000 RA BR BKN009/// BKN023/// BKN060/// 11/11 Q1001 BECMG 9999 TEMPO 6000 RA BKN014


Station Type Date Time Source
NZAA Decoded METAR 2019/08/20 09:30 UTC NOAA

Auckland Airport, New Zealand (NZAA) 37-01S 174-48E 6M
Aug 20, 2019 - 05:30 AM EDT / 2019.08.20 0930 UTC
Wind: from the NE (050 degrees) at 12 MPH (10 KT) gusting to 24 MPH (21 KT) (direction variable):0
Visibility: 3 mile(s):0
Sky conditions: mostly cloudy
Weather: rain; mist
Temperature: 51 F (11 C)
Dew Point: 51 F (11 C)
Relative Humidity: 100%
Pressure (altimeter): 29.56 in. Hg (1001 hPa)
ob: NZAA 200930Z AUTO 05010G21KT 020V080 5000 RA BR BKN009/// BKN023/// BKN060/// 11/11 Q1001 BECMG 9999 TEMPO 6000 RA BKN014
cycle: 9

Station Type Date Time Source
NZAA TAF 2019/08/20 09:41 UTC NOAA

TAF
AMD NZAA 200936Z 2009/2106 05015G25KT 9999 -SHRA SCT030 BKN050
TEMPO 2009/2016 6000 RA BKN014 FEW020TCU PROB40
TEMPO 2009/2014 3000 +RA BKN008 FEW020CB
BECMG 2012/2014 30008KT
BECMG 2016/2018 24018G30KT
TEMPO 2016/2023 6000 SHRA FEW020TCU
BECMG 2104/2106 30012KT

Example: see airport list